createdAt,value
2023-04-02T00:01:00.859Z,2.37
2023-04-02T00:03:42.539Z,2.39
2023-04-02T00:06:40.536Z,2.35
2023-04-02T00:09:13.739Z,2.39
2023-04-02T00:11:46.700Z,2.38
2023-04-02T00:14:18.594Z,2.35
2023-04-02T00:16:46.032Z,2.40
2023-04-02T00:19:18.537Z,2.36
2023-04-02T00:21:46.684Z,2.38
2023-04-02T00:24:20.786Z,2.37
2023-04-02T00:26:53.037Z,2.31
2023-04-02T00:29:20.786Z,2.19
2023-04-02T00:31:51.101Z,2.25
2023-04-02T00:34:33.854Z,2.20
2023-04-02T00:37:01.948Z,2.19
2023-04-02T00:39:34.341Z,2.19
2023-04-02T00:42:06.506Z,2.19
2023-04-02T00:44:43.270Z,2.14
2023-04-02T00:47:19.252Z,2.06
2023-04-02T00:49:47.094Z,2.03
2023-04-02T00:52:21.494Z,2.05
2023-04-02T00:54:52.450Z,2.04
2023-04-02T00:57:26.118Z,2.01
2023-04-02T01:00:12.620Z,2.03
2023-04-02T01:02:41.018Z,1.95
2023-04-02T01:05:17.794Z,1.98
2023-04-02T01:08:07.167Z,1.91
2023-04-02T01:11:02.423Z,1.91
2023-04-02T01:13:39.563Z,1.87
2023-04-02T01:16:19.553Z,1.86
2023-04-02T01:19:02.171Z,1.88
2023-04-02T01:21:43.205Z,1.86
2023-04-02T01:24:14.630Z,1.87
2023-04-02T01:27:04.227Z,1.82
2023-04-02T01:29:48.957Z,1.78
2023-04-02T01:32:19.830Z,1.87
2023-04-02T01:34:48.746Z,1.82
2023-04-02T01:37:50.026Z,1.89
2023-04-02T01:40:36.271Z,1.86
2023-04-02T01:43:12.937Z,1.88
2023-04-02T01:45:40.708Z,1.80
2023-04-02T01:48:20.282Z,1.73
2023-04-02T01:50:49.979Z,1.78
2023-04-02T01:53:19.224Z,1.71
2023-04-02T01:55:51.023Z,1.64
2023-04-02T01:58:25.848Z,1.63
2023-04-02T02:01:04.033Z,1.65
2023-04-02T02:03:31.908Z,1.65
2023-04-02T02:05:59.904Z,1.69
2023-04-02T02:08:50.828Z,1.68
2023-04-02T02:11:23.666Z,1.76
2023-04-02T02:13:57.580Z,1.74
2023-04-02T02:16:29.540Z,1.74
2023-04-02T02:19:04.224Z,1.72
2023-04-02T02:21:40.139Z,1.76
2023-04-02T02:24:37.264Z,1.79
2023-04-02T02:27:04.346Z,1.75
2023-04-02T02:29:37.153Z,1.81
2023-04-02T02:32:07.429Z,1.78
2023-04-02T02:34:43.468Z,1.82
2023-04-02T02:37:19.222Z,1.83
2023-04-02T02:39:53.834Z,1.87
2023-04-02T02:42:29.349Z,1.87
2023-04-02T02:44:58.553Z,1.88
2023-04-02T02:47:35.005Z,1.85
2023-04-02T02:50:07.226Z,1.88
2023-04-02T02:52:38.847Z,1.85
2023-04-02T02:55:14.417Z,1.78
2023-04-02T02:57:51.415Z,1.84
2023-04-02T03:00:21.305Z,1.84
2023-04-02T03:02:52.543Z,1.88
2023-04-02T03:05:24.455Z,1.81
2023-04-02T03:07:52.395Z,1.87
2023-04-02T03:10:24.954Z,-89.36
2023-04-02T03:13:02.615Z,1.85
2023-04-02T03:15:41.344Z,1.85
2023-04-02T03:18:20.916Z,1.94
2023-04-02T03:21:00.846Z,1.91
2023-04-02T03:23:33.239Z,1.93
2023-04-02T03:26:12.511Z,1.96
2023-04-02T03:28:45.346Z,1.95
2023-04-02T03:31:38.096Z,1.99
2023-04-02T03:34:26.697Z,2.06
2023-04-02T03:37:08.047Z,2.01
2023-04-02T03:39:46.568Z,2.12
2023-04-02T03:42:25.151Z,2.16
2023-04-02T03:45:19.307Z,2.12
2023-04-02T03:47:56.211Z,2.15
2023-04-02T03:50:53.965Z,2.17
2023-04-02T03:53:24.312Z,2.24
2023-04-02T03:55:54.085Z,2.27
2023-04-02T03:58:43.473Z,2.30
2023-04-02T04:01:31.976Z,2.30
2023-04-02T04:04:07.913Z,2.29
2023-04-02T04:06:37.582Z,2.36
2023-04-02T04:09:11.513Z,2.37
2023-04-02T04:11:45.732Z,2.46
2023-04-02T04:14:27.725Z,2.40
2023-04-02T04:17:15.845Z,2.46
2023-04-02T04:20:00.936Z,2.51
2023-04-02T04:22:33.018Z,2.59
2023-04-02T04:25:06.020Z,2.59
2023-04-02T04:27:58.266Z,2.64
2023-04-02T04:30:51.302Z,2.62
2023-04-02T04:33:23.062Z,2.64
2023-04-02T04:35:55.876Z,2.66
2023-04-02T04:38:39.277Z,2.69
2023-04-02T04:41:35.637Z,2.70
2023-04-02T04:44:34.321Z,2.76
2023-04-02T04:47:20.560Z,2.75
2023-04-02T04:49:53.623Z,2.77
2023-04-02T04:52:25.841Z,2.83
2023-04-02T04:54:53.079Z,2.83
2023-04-02T04:57:37.144Z,2.85
2023-04-02T05:00:14.369Z,2.90
2023-04-02T05:03:26.555Z,2.98
2023-04-02T05:05:54.176Z,2.99
2023-04-02T05:08:27.365Z,3.03
2023-04-02T05:11:03.498Z,-138.62
2023-04-02T05:13:38.948Z,-138.62
2023-04-02T05:16:24.482Z,-138.62
2023-04-02T05:19:06.825Z,-138.62
2023-04-02T05:21:51.993Z,-138.62
2023-04-02T05:24:51.395Z,-138.62
2023-04-02T05:27:42.414Z,-138.62
2023-04-02T05:30:52.987Z,-138.62
2023-04-02T05:33:29.453Z,-138.62
2023-04-02T05:36:07.805Z,3.06
2023-04-02T05:38:38.745Z,3.47
2023-04-02T05:41:27.159Z,3.47
2023-04-02T05:44:06.749Z,-138.62
2023-04-02T05:46:42.796Z,-138.62
2023-04-02T05:49:37.379Z,-138.62
2023-04-02T05:52:08.111Z,-138.62
2023-04-02T05:54:40.089Z,-138.62
2023-04-02T05:57:44.600Z,-138.62
2023-04-02T06:00:47.693Z,-138.62
2023-04-02T06:03:46.070Z,-138.62
2023-04-02T06:06:24.448Z,-138.62
2023-04-02T06:09:01.416Z,-138.62
2023-04-02T06:11:34.826Z,-138.62
2023-04-02T06:14:04.930Z,-138.62
2023-04-02T06:16:34.380Z,-138.62
2023-04-02T06:19:05.614Z,3.47
2023-04-02T06:21:33.074Z,4.64
2023-04-02T06:24:03.520Z,4.74
2023-04-02T06:26:35.462Z,4.89
2023-04-02T06:29:13.954Z,4.91
2023-04-02T06:31:49.288Z,5.08
2023-04-02T06:34:22.510Z,5.17
2023-04-02T06:36:51.653Z,5.11
2023-04-02T06:39:22.865Z,5.27
2023-04-02T06:42:02.103Z,5.35
2023-04-02T06:44:36.977Z,5.30
2023-04-02T06:47:24.188Z,5.28
2023-04-02T06:50:01.918Z,5.30
2023-04-02T06:52:35.109Z,5.34
2023-04-02T06:55:20.596Z,5.31
2023-04-02T06:57:48.428Z,5.30
2023-04-02T07:00:34.383Z,5.33
2023-04-02T07:03:25.212Z,5.38
2023-04-02T07:05:52.451Z,5.57
2023-04-02T07:08:20.016Z,5.65
2023-04-02T07:10:47.341Z,5.63
2023-04-02T07:13:17.001Z,5.60
2023-04-02T07:15:49.470Z,5.55
2023-04-02T07:18:34.177Z,5.55
2023-04-02T07:21:02.454Z,5.56
2023-04-02T07:23:30.864Z,5.64
2023-04-02T07:25:58.534Z,5.71
2023-04-02T07:28:26.588Z,5.78
2023-04-02T07:30:56.812Z,5.68
2023-04-02T07:33:28.934Z,5.73
2023-04-02T07:35:57.663Z,5.81
2023-04-02T07:38:25.053Z,5.88
2023-04-02T07:40:52.364Z,5.94
2023-04-02T07:43:19.530Z,6.08
2023-04-02T07:45:46.773Z,6.22
2023-04-02T07:48:15.316Z,6.20
2023-04-02T07:50:42.728Z,6.23
2023-04-02T07:53:30.101Z,6.29
2023-04-02T07:56:01.585Z,6.17
2023-04-02T07:58:30.644Z,6.15
2023-04-02T08:00:58.898Z,5.93
2023-04-02T08:03:26.931Z,5.89
2023-04-02T08:05:56.797Z,5.93
2023-04-02T08:08:25.440Z,6.08
2023-04-02T08:10:52.835Z,6.20
2023-04-02T08:13:20.142Z,6.43
2023-04-02T08:15:47.216Z,6.69
2023-04-02T08:18:14.417Z,6.98
2023-04-02T08:20:41.943Z,7.32
2023-04-02T08:23:17.982Z,7.41
2023-04-02T08:25:45.711Z,7.40
2023-04-02T08:28:13.042Z,7.19
2023-04-02T08:30:41.196Z,6.98
2023-04-02T08:33:08.562Z,6.69
2023-04-02T08:35:36.526Z,6.42
2023-04-02T08:38:04.325Z,6.41
2023-04-02T08:40:36.494Z,6.47
2023-04-02T08:43:25.451Z,6.66
2023-04-02T08:46:11.870Z,6.92
2023-04-02T08:48:43.155Z,7.32
2023-04-02T08:51:23.189Z,7.63
2023-04-02T08:53:53.481Z,7.82
2023-04-02T08:56:30.685Z,7.81
2023-04-02T08:59:03.440Z,7.53
2023-04-02T09:01:46.924Z,7.30
2023-04-02T09:04:20.710Z,7.14
2023-04-02T09:06:49.545Z,7.00
2023-04-02T09:09:17.049Z,6.83
2023-04-02T09:11:54.030Z,6.85
2023-04-02T09:14:30.998Z,6.84
2023-04-02T09:17:02.175Z,7.08
2023-04-02T09:19:37.379Z,7.42
2023-04-02T09:22:26.238Z,7.82
2023-04-02T09:24:58.602Z,8.15
2023-04-02T09:27:28.722Z,8.41
2023-04-02T09:30:24.214Z,8.34
2023-04-02T09:32:57.047Z,8.04
2023-04-02T09:35:27.180Z,7.82
2023-04-02T09:38:17.920Z,7.77
2023-04-02T09:40:54.123Z,7.63
2023-04-02T09:43:27.247Z,7.35
2023-04-02T09:46:16.024Z,7.40
2023-04-02T09:48:54.765Z,7.17
2023-04-02T09:51:26.951Z,7.34
2023-04-02T09:54:03.369Z,7.62
2023-04-02T09:56:32.785Z,7.78
2023-04-02T09:59:15.509Z,7.88
2023-04-02T10:01:55.764Z,8.15
2023-04-02T10:04:36.522Z,8.41
2023-04-02T10:07:06.507Z,8.60
2023-04-02T10:09:36.998Z,8.62
2023-04-02T10:12:13.542Z,8.50
2023-04-02T10:14:45.022Z,8.45
2023-04-02T10:17:35.737Z,8.48
2023-04-02T10:20:11.756Z,8.77
2023-04-02T10:22:40.064Z,9.24
2023-04-02T10:25:31.242Z,9.66
2023-04-02T10:28:12.382Z,9.26
2023-04-02T10:31:17.460Z,9.21
2023-04-02T10:33:51.482Z,9.59
2023-04-02T10:36:37.187Z,9.90
2023-04-02T10:39:15.909Z,10.37
2023-04-02T10:42:14.924Z,10.43
2023-04-02T10:44:52.755Z,-138.62
2023-04-02T10:47:38.132Z,-138.62
2023-04-02T10:50:37.652Z,11.13
2023-04-02T10:53:27.171Z,11.35
2023-04-02T10:55:59.097Z,11.68
2023-04-02T10:58:29.617Z,11.85
2023-04-02T11:01:04.800Z,12.01
2023-04-02T11:03:42.031Z,12.34
2023-04-02T11:06:28.881Z,12.75
2023-04-02T11:09:04.942Z,12.88
2023-04-02T11:11:47.109Z,13.12
2023-04-02T11:14:27.744Z,13.26
2023-04-02T11:16:59.114Z,13.54
2023-04-02T11:19:34.310Z,13.72
2023-04-02T11:22:15.328Z,14.17
2023-04-02T11:24:57.312Z,14.45
2023-04-02T11:27:28.527Z,14.45
2023-04-02T11:30:05.255Z,14.79
2023-04-02T11:32:43.087Z,15.05
2023-04-02T11:35:32.319Z,14.55
2023-04-02T11:38:23.502Z,13.53
2023-04-02T11:40:58.692Z,12.23
2023-04-02T11:43:35.740Z,11.96
2023-04-02T11:46:21.809Z,11.79
2023-04-02T11:48:49.429Z,11.12
2023-04-02T11:51:25.874Z,11.67
2023-04-02T11:53:54.567Z,12.50
2023-04-02T11:56:32.663Z,12.59
2023-04-02T11:59:24.766Z,11.88
2023-04-02T12:02:24.615Z,11.89
2023-04-02T12:05:04.546Z,11.59
2023-04-02T12:07:38.421Z,11.51
2023-04-02T12:10:17.313Z,11.08
2023-04-02T12:12:45.175Z,11.64
2023-04-02T12:15:34.674Z,13.19
2023-04-02T12:18:23.187Z,14.47
2023-04-02T12:20:53.233Z,15.46
2023-04-02T12:23:33.626Z,16.37
2023-04-02T12:26:03.942Z,16.66
2023-04-02T12:28:35.696Z,16.12
2023-04-02T12:31:09.075Z,14.69
2023-04-02T12:33:38.006Z,13.56
2023-04-02T12:36:17.271Z,13.11
2023-04-02T12:38:51.210Z,12.78
2023-04-02T12:41:33.466Z,14.10
2023-04-02T12:44:03.548Z,15.04
2023-04-02T12:46:33.254Z,15.36
2023-04-02T12:49:36.078Z,14.54
2023-04-02T12:52:09.326Z,14.00
2023-04-02T12:54:45.077Z,12.98
2023-04-02T12:57:27.770Z,12.30
2023-04-02T13:00:06.456Z,12.49
2023-04-02T13:02:44.896Z,13.19
2023-04-02T13:05:52.469Z,13.43
2023-04-02T13:08:22.543Z,13.06
2023-04-02T13:10:59.133Z,12.44
2023-04-02T13:13:34.229Z,12.85
2023-04-02T13:16:14.890Z,12.88
2023-04-02T13:18:45.043Z,12.52
2023-04-02T13:21:14.774Z,12.20
2023-04-02T13:23:42.393Z,11.79
2023-04-02T13:26:22.951Z,12.49
2023-04-02T13:29:17.802Z,12.67
2023-04-02T13:31:45.135Z,12.12
2023-04-02T13:34:12.359Z,12.00
2023-04-02T13:36:39.714Z,11.81
2023-04-02T13:39:07.084Z,11.80
2023-04-02T13:41:40.507Z,13.01
2023-04-02T13:44:11.425Z,14.74
2023-04-02T13:46:38.609Z,15.18
2023-04-02T13:49:05.907Z,14.64
2023-04-02T13:51:45.164Z,14.39
2023-04-02T13:54:19.844Z,13.53
2023-04-02T13:56:47.234Z,12.90
2023-04-02T13:59:14.517Z,12.21
2023-04-02T14:01:44.730Z,11.74
2023-04-02T14:04:17.747Z,11.79
2023-04-02T14:07:20.218Z,11.87
2023-04-02T14:10:09.981Z,12.87
2023-04-02T14:13:08.401Z,13.43
2023-04-02T14:15:57.365Z,14.08
2023-04-02T14:18:33.134Z,13.31
2023-04-02T14:21:29.170Z,12.69
2023-04-02T14:24:17.967Z,12.05
2023-04-02T14:26:59.663Z,11.62
2023-04-02T14:29:31.633Z,11.65
2023-04-02T14:32:04.499Z,12.64
2023-04-02T14:35:03.206Z,14.15
2023-04-02T14:37:44.226Z,15.05
2023-04-02T14:40:27.688Z,14.89
2023-04-02T14:43:05.921Z,15.10
2023-04-02T14:45:50.191Z,14.65
2023-04-02T14:48:24.774Z,15.62
2023-04-02T14:50:56.409Z,15.17
2023-04-02T14:53:37.648Z,14.42
2023-04-02T14:56:08.568Z,13.51
2023-04-02T14:58:41.369Z,13.57
2023-04-02T15:01:33.713Z,14.47
2023-04-02T15:04:14.876Z,15.09
2023-04-02T15:06:46.102Z,15.09
2023-04-02T15:09:18.981Z,-138.62
2023-04-02T15:11:51.361Z,-138.62
2023-04-02T15:14:31.849Z,-138.62
2023-04-02T15:16:59.014Z,-138.62
2023-04-02T15:19:26.419Z,-138.62
2023-04-02T15:22:07.361Z,-138.62
2023-04-02T15:24:43.278Z,-138.62
2023-04-02T15:27:28.910Z,11.90
2023-04-02T15:30:26.857Z,12.85
2023-04-02T15:32:59.223Z,13.62
2023-04-02T15:35:41.713Z,13.08
2023-04-02T15:38:18.062Z,12.36
2023-04-02T15:41:11.621Z,11.73
2023-04-02T15:44:20.176Z,11.57
2023-04-02T15:47:08.431Z,12.55
2023-04-02T15:49:53.779Z,12.55
2023-04-02T15:52:30.416Z,12.07
2023-04-02T15:55:19.312Z,11.21
2023-04-02T15:57:54.767Z,10.93
2023-04-02T16:00:33.568Z,10.55
2023-04-02T16:03:36.985Z,10.26
2023-04-02T16:06:32.816Z,10.66
2023-04-02T16:09:27.518Z,11.40
2023-04-02T16:12:01.418Z,11.59
2023-04-02T16:14:31.361Z,10.87
2023-04-02T16:17:23.893Z,10.44
2023-04-02T16:20:02.072Z,9.88
2023-04-02T16:22:30.943Z,9.64
2023-04-02T16:25:16.398Z,9.79
2023-04-02T16:27:57.771Z,10.00
2023-04-02T16:30:33.920Z,10.16
2023-04-02T16:33:30.554Z,10.16
2023-04-02T16:36:25.724Z,10.36
2023-04-02T16:39:22.060Z,9.79
2023-04-02T16:42:11.723Z,9.38
2023-04-02T16:45:24.004Z,9.16
2023-04-02T16:47:50.948Z,8.94
2023-04-02T16:50:36.565Z,8.99
2023-04-02T16:53:06.835Z,9.24
2023-04-02T16:56:29.322Z,9.22
2023-04-02T16:59:22.803Z,9.15
2023-04-02T17:01:57.209Z,9.15
2023-04-02T17:04:51.845Z,9.06
2023-04-02T17:07:40.717Z,9.09
2023-04-02T17:10:32.126Z,8.94
2023-04-02T17:13:14.986Z,8.93
2023-04-02T17:15:45.927Z,8.82
2023-04-02T17:18:21.732Z,8.55
2023-04-02T17:20:49.518Z,8.35
2023-04-02T17:23:18.862Z,8.15
2023-04-02T17:25:54.484Z,8.15
2023-04-02T17:28:29.535Z,7.84
2023-04-02T17:30:59.952Z,7.60
2023-04-02T17:33:28.982Z,7.42
2023-04-02T17:36:13.620Z,7.35
2023-04-02T17:38:51.236Z,7.32
2023-04-02T17:41:22.614Z,7.32
2023-04-02T17:43:49.756Z,6.98
2023-04-02T17:46:44.260Z,6.95
2023-04-02T17:49:20.248Z,6.89
2023-04-02T17:51:57.769Z,6.78
2023-04-02T17:54:41.290Z,6.64
2023-04-02T17:57:33.534Z,6.54
2023-04-02T18:00:22.228Z,6.52
2023-04-02T18:03:01.585Z,6.52
2023-04-02T18:05:53.721Z,6.29
2023-04-02T18:08:42.678Z,6.15
2023-04-02T18:11:10.469Z,6.04
2023-04-02T18:13:46.903Z,6.01
2023-04-02T18:16:17.055Z,5.87
2023-04-02T18:19:17.298Z,5.84
2023-04-02T18:22:03.065Z,5.70
2023-04-02T18:24:53.284Z,5.68
2023-04-02T18:27:31.060Z,5.53
2023-04-02T18:30:21.973Z,5.52
2023-04-02T18:33:11.194Z,5.36
2023-04-02T18:36:06.561Z,5.23
2023-04-02T18:38:39.465Z,5.18
2023-04-02T18:41:38.268Z,5.13
2023-04-02T18:44:37.057Z,5.04
2023-04-02T18:47:20.064Z,4.96
2023-04-02T18:50:16.026Z,4.96
2023-04-02T18:52:44.189Z,4.93
2023-04-02T18:55:32.146Z,4.84
2023-04-02T18:58:06.376Z,4.73
2023-04-02T19:00:38.710Z,4.66
2023-04-02T19:03:21.288Z,4.58
2023-04-02T19:06:16.107Z,4.56
2023-04-02T19:08:53.736Z,4.50
2023-04-02T19:11:30.014Z,4.43
2023-04-02T19:14:16.694Z,4.31
2023-04-02T19:17:24.687Z,4.28
2023-04-02T19:20:12.437Z,4.24
2023-04-02T19:22:53.249Z,4.19
2023-04-02T19:25:51.016Z,4.17
2023-04-02T19:28:24.035Z,4.24
2023-04-02T19:31:29.896Z,4.13
2023-04-02T19:34:09.390Z,4.03
2023-04-02T19:36:56.181Z,4.10
2023-04-02T19:39:29.497Z,3.99
2023-04-02T19:42:21.530Z,3.99
2023-04-02T19:44:51.378Z,3.87
2023-04-02T19:47:19.965Z,3.84
2023-04-02T19:49:47.415Z,3.69
2023-04-02T19:52:14.628Z,3.69
2023-04-02T19:54:42.094Z,3.65
2023-04-02T19:57:14.587Z,3.61
2023-04-02T19:59:41.854Z,3.68
2023-04-02T20:02:11.230Z,3.58
2023-04-02T20:04:38.676Z,3.59
2023-04-02T20:07:06.082Z,3.52
2023-04-02T20:09:33.265Z,3.45
2023-04-02T20:12:00.817Z,3.52
2023-04-02T20:14:27.905Z,3.48
2023-04-02T20:16:55.376Z,3.44
2023-04-02T20:19:23.089Z,3.41
2023-04-02T20:21:50.710Z,3.35
2023-04-02T20:24:18.299Z,3.25
2023-04-02T20:26:45.685Z,3.18
2023-04-02T20:29:13.353Z,3.18
2023-04-02T20:31:40.557Z,29.54
2023-04-02T20:34:09.546Z,3.21
2023-04-02T20:36:36.852Z,3.22
2023-04-02T20:39:07.240Z,3.14
2023-04-02T20:41:35.924Z,3.02
2023-04-02T20:44:03.344Z,3.03
2023-04-02T20:46:30.789Z,3.07
2023-04-02T20:48:58.150Z,3.06
2023-04-02T20:51:25.274Z,3.13
2023-04-02T20:53:52.362Z,3.15
2023-04-02T20:56:20.969Z,3.09
2023-04-02T20:58:48.285Z,3.02
2023-04-02T21:01:24.612Z,3.00
2023-04-02T21:04:03.566Z,2.97
2023-04-02T21:06:34.273Z,2.92
2023-04-02T21:09:05.792Z,2.99
2023-04-02T21:11:36.013Z,2.95
2023-04-02T21:14:04.630Z,3.01
2023-04-02T21:16:32.429Z,2.95
2023-04-02T21:19:05.266Z,2.98
2023-04-02T21:21:32.775Z,2.89
2023-04-02T21:24:02.180Z,2.88
2023-04-02T21:26:33.262Z,2.84
2023-04-02T21:29:02.093Z,2.80
2023-04-02T21:31:34.065Z,2.80
2023-04-02T21:34:01.619Z,2.80
2023-04-02T21:36:37.689Z,2.70
2023-04-02T21:39:07.533Z,2.62
2023-04-02T21:41:37.458Z,2.54
2023-04-02T21:44:07.475Z,2.55
2023-04-02T21:46:38.723Z,2.58
2023-04-02T21:49:08.140Z,2.56
2023-04-02T21:51:37.055Z,2.46
2023-04-02T21:54:05.027Z,2.49
2023-04-02T21:56:35.474Z,2.46
2023-04-02T21:59:04.776Z,2.51
2023-04-02T22:01:35.414Z,2.51
2023-04-02T22:04:04.496Z,2.47
2023-04-02T22:06:35.881Z,2.47
2023-04-02T22:09:07.419Z,2.46
2023-04-02T22:11:37.591Z,2.39
2023-04-02T22:14:06.323Z,2.33
2023-04-02T22:16:36.538Z,2.31
2023-04-02T22:19:06.761Z,2.19
2023-04-02T22:21:34.552Z,2.24
2023-04-02T22:24:06.973Z,2.27
2023-04-02T22:26:35.242Z,2.20
2023-04-02T22:29:03.047Z,2.16
2023-04-02T22:31:31.798Z,2.04
2023-04-02T22:33:59.998Z,2.00
2023-04-02T22:36:28.323Z,1.94
2023-04-02T22:38:56.658Z,1.83
2023-04-02T22:41:27.603Z,1.79
2023-04-02T22:43:59.098Z,1.81
2023-04-02T22:46:27.565Z,1.80
2023-04-02T22:48:56.185Z,1.73
2023-04-02T22:51:25.231Z,1.67
2023-04-02T22:53:54.344Z,1.63
2023-04-02T22:56:26.245Z,1.48
2023-04-02T22:58:53.572Z,1.49
2023-04-02T23:01:27.279Z,1.40
2023-04-02T23:03:55.487Z,1.39
2023-04-02T23:06:24.004Z,1.36
2023-04-02T23:08:51.909Z,1.33
2023-04-02T23:11:27.920Z,1.29
2023-04-02T23:13:58.888Z,1.29
2023-04-02T23:16:28.633Z,1.25
2023-04-02T23:18:56.777Z,1.24
2023-04-02T23:21:25.925Z,1.16
2023-04-02T23:23:53.399Z,1.17
2023-04-02T23:26:29.815Z,1.13
2023-04-02T23:28:58.909Z,1.09
2023-04-02T23:31:27.055Z,1.03
2023-04-02T23:33:54.442Z,1.01
2023-04-02T23:36:27.612Z,1.09
2023-04-02T23:38:57.472Z,0.96
2023-04-02T23:41:27.139Z,0.97
2023-04-02T23:43:56.229Z,0.84
2023-04-02T23:46:24.068Z,0.85
2023-04-02T23:48:52.540Z,0.83
2023-04-02T23:51:20.130Z,0.80
2023-04-02T23:53:48.745Z,0.75
2023-04-02T23:56:16.276Z,0.74
2023-04-02T23:58:43.654Z,0.63
